Time,TemperatureF,DewpointF,PressureIn,WindDirection,WindDirectionDegrees,WindSpeedMPH,WindSpeedGustMPH,Humidity,HourlyPrecipIn,Conditions,Clouds,dailyrainin,SoftwareType,DateUTC
2013-03-20 00:00:00,51.4,26.6,29.90,ENE,68,0.0,10.0,38,0.00,CLR,,0.00,WeatherDisplay:10.37,2013-03-20 05:00:00,
2013-03-20 00:30:00,49.6,28.5,29.92,NNE,29,2.0,12.0,44,0.00,CLR,,0.00,WeatherDisplay:10.37,2013-03-20 05:30:00,
2013-03-20 01:00:00,47.7,30.0,29.94,ENE,65,5.0,12.0,50,0.00,CLR,,0.00,WeatherDisplay:10.37,2013-03-20 06:00:00,
2013-03-20 01:30:00,46.0,30.7,29.98,ENE,67,3.0,12.0,55,0.00,CLR,,0.00,WeatherDisplay:10.37,2013-03-20 06:30:00,
2013-03-20 02:00:00,43.5,30.9,29.99,East,86,1.0,12.0,61,0.00,CLR,,0.00,WeatherDisplay:10.37,2013-03-20 07:00:00,
2013-03-20 02:31:00,42.2,31.7,30.00,SE,130,0.0,7.0,66,0.00,CLR,,0.00,WeatherDisplay:10.37,2013-03-20 07:31:00,
2013-03-20 02:59:00,37.8,28.9,30.02,SE,130,0.0,3.0,70,0.00,CLR,,0.00,WeatherDisplay:10.37,2013-03-20 07:59:00,
2013-03-20 03:29:00,34.0,26.6,30.05,SE,130,0.0,2.0,74,0.00,CLR,,0.00,WeatherDisplay:10.37,2013-03-20 08:29:00,
2013-03-20 03:59:00,31.4,24.7,30.06,SE,130,0.0,2.0,76,0.00,CLR,,0.00,WeatherDisplay:10.37,2013-03-20 08:59:00,
2013-03-20 04:29:00,29.4,23.7,30.07,SE,130,0.0,3.0,79,0.00,CLR,,0.00,WeatherDisplay:10.37,2013-03-20 09:29:00,
2013-03-20 04:59:00,29.0,24.5,30.06,SE,130,0.0,2.0,83,0.00,CLR,,0.00,WeatherDisplay:10.37,2013-03-20 09:59:00,
2013-03-20 05:30:00,30.3,26.9,30.05,SE,130,0.0,3.0,87,0.00,CLR,,0.00,WeatherDisplay:10.37,2013-03-20 10:30:00,
2013-03-20 06:00:00,31.2,27.8,30.04,SE,130,0.0,2.0,87,0.00,CLR,,0.00,WeatherDisplay:10.37,2013-03-20 11:00:00,
2013-03-20 06:30:00,32.1,28.7,30.06,SE,130,0.0,2.0,87,0.00,CLR,,0.00,WeatherDisplay:10.37,2013-03-20 11:30:00,
2013-03-20 07:00:00,32.9,28.6,30.07,SE,130,1.0,2.0,84,0.00,CLR,,0.00,WeatherDisplay:10.37,2013-03-20 12:00:00,
2013-03-20 07:30:00,30.4,25.9,30.12,SE,130,0.0,3.0,83,0.00,CLR,,0.00,WeatherDisplay:10.37,2013-03-20 12:30:00,
2013-03-20 08:00:00,30.6,27.2,30.13,SE,130,0.0,2.0,87,0.00,CLR,,0.00,WeatherDisplay:10.37,2013-03-20 13:00:00,
2013-03-20 08:30:00,35.0,32.6,30.13,ESE,106,0.0,6.0,91,0.00,CLR,,0.00,WeatherDisplay:10.37,2013-03-20 13:30:00,
2013-03-20 09:00:00,38.6,35.3,30.12,NE,40,2.0,8.0,88,0.00,CLR,,0.00,WeatherDisplay:10.37,2013-03-20 14:00:00,
2013-03-20 09:30:00,38.9,33.9,30.16,ENE,72,5.0,8.0,82,0.00,CLR,,0.00,WeatherDisplay:10.37,2013-03-20 14:30:00,
2013-03-20 10:00:00,41.2,34.6,30.15,East,82,5.0,8.0,77,0.00,CLR,,0.00,WeatherDisplay:10.37,2013-03-20 15:00:00,
2013-03-20 10:30:00,44.4,35.2,30.18,ENE,62,2.0,10.0,70,0.00,CLR,,0.00,WeatherDisplay:10.37,2013-03-20 15:30:00,
2013-03-20 11:00:00,48.2,36.2,30.14,ENE,67,6.0,9.0,63,0.00,CLR,,0.00,WeatherDisplay:10.37,2013-03-20 16:00:00,
2013-03-20 11:30:00,51.0,36.8,30.10,SSE,161,2.0,16.0,58,0.00,CLR,,0.00,WeatherDisplay:10.37,2013-03-20 16:30:00,
2013-03-20 12:00:00,49.6,36.7,30.09,South,170,9.0,20.0,61,0.00,CLR,,0.00,WeatherDisplay:10.37,2013-03-20 17:00:00,
2013-03-20 12:30:00,51.0,36.7,30.10,South,186,5.0,18.0,58,0.00,CLR,,0.00,WeatherDisplay:10.37,2013-03-20 17:30:00,
2013-03-20 13:00:00,50.6,35.5,30.10,SSE,165,8.0,20.0,56,0.00,CLR,,0.00,WeatherDisplay:10.37,2013-03-20 18:00:00,
2013-03-20 13:30:00,52.3,35.7,30.10,SSE,147,7.0,18.0,53,0.00,CLR,,0.00,WeatherDisplay:10.37,2013-03-20 18:30:00,
2013-03-20 14:00:00,54.2,35.9,30.09,SE,141,6.0,17.0,50,0.00,CLR,,0.00,WeatherDisplay:10.37,2013-03-20 19:00:00,
2013-03-20 14:30:00,55.9,34.3,30.10,SSE,167,6.0,15.0,44,0.00,CLR,,0.00,WeatherDisplay:10.37,2013-03-20 19:30:00,
2013-03-20 15:00:00,57.6,34.0,30.05,SSE,166,5.0,17.0,41,0.00,CLR,,0.00,WeatherDisplay:10.37,2013-03-20 20:00:00,
2013-03-20 15:30:00,58.5,33.0,30.07,SSE,163,5.0,13.0,38,0.00,CLR,,0.00,WeatherDisplay:10.37,2013-03-20 20:30:00,
2013-03-20 16:00:00,59.2,32.9,30.04,SE,125,6.0,13.0,37,0.00,CLR,,0.00,WeatherDisplay:10.37,2013-03-20 21:00:00,
2013-03-20 16:30:00,61.8,32.4,30.00,South,177,6.0,15.0,33,0.00,CLR,,0.00,WeatherDisplay:10.37,2013-03-20 21:30:00,
2013-03-20 17:00:00,60.4,34.0,29.99,SE,146,5.0,13.0,37,0.00,CLR,,0.00,WeatherDisplay:10.37,2013-03-20 22:00:00,
2013-03-20 17:30:00,61.9,33.9,29.95,SSW,210,1.0,16.0,35,0.00,CLR,,0.00,WeatherDisplay:10.37,2013-03-20 22:30:00,
2013-03-20 18:00:00,61.6,33.7,29.94,SW,222,3.0,13.0,35,0.00,CLR,,0.00,WeatherDisplay:10.37,2013-03-20 23:00:00,
2013-03-20 18:30:00,62.3,33.6,29.94,WSW,242,2.0,12.0,34,0.00,CLR,,0.00,WeatherDisplay:10.37,2013-03-20 23:30:00,
2013-03-20 19:00:00,61.0,33.8,29.94,SSE,151,6.0,13.0,36,0.00,CLR,,0.00,WeatherDisplay:10.37,2013-03-21 00:00:00,
2013-03-20 19:30:00,58.9,36.4,29.94,SSE,152,3.0,10.0,43,0.00,CLR,,0.00,WeatherDisplay:10.37,2013-03-21 00:30:00,
2013-03-20 20:00:00,57.6,37.5,29.92,South,169,0.0,8.0,47,0.00,CLR,,0.00,WeatherDisplay:10.37,2013-03-21 01:00:00,
2013-03-20 20:30:00,57.2,36.6,29.89,SSW,213,2.0,8.0,46,0.00,CLR,,0.00,WeatherDisplay:10.37,2013-03-21 01:30:00,
2013-03-20 21:00:00,55.7,36.8,29.90,SW,234,1.0,12.0,49,0.00,CLR,,0.00,WeatherDisplay:10.37,2013-03-21 02:00:00,
2013-03-20 21:30:00,53.9,36.1,29.87,SW,229,0.0,7.0,51,0.00,CLR,,0.00,WeatherDisplay:10.37,2013-03-21 02:30:00,
2013-03-20 22:00:00,48.5,33.9,29.91,SW,229,0.0,3.0,57,0.00,CLR,,0.00,WeatherDisplay:10.37,2013-03-21 03:00:00,
2013-03-20 22:30:00,44.1,33.8,29.90,SW,229,1.0,3.0,67,0.00,CLR,,0.00,WeatherDisplay:10.37,2013-03-21 03:30:00,
2013-03-20 23:00:00,42.4,32.6,29.90,SW,229,0.0,3.0,68,0.00,CLR,,0.00,WeatherDisplay:10.37,2013-03-21 04:00:00,
2013-03-20 23:30:00,39.9,31.6,29.92,SW,229,1.0,3.0,72,0.00,CLR,,0.00,WeatherDisplay:10.37,2013-03-21 04:30:00,
2013-03-20 23:59:00,38.7,31.1,29.91,SW,229,1.0,3.0,74,0.00,CLR,,0.00,WeatherDisplay:10.37,2013-03-21 04:59:00,